Wednesday, September 19, 2018, 2:42 PM EDT
Back to Local

KCBE, Cumberland, Greater Cumberland Regional Airport

Location: Wiley Ford, MD, United States Lat: 39.615
Local Time: 2:42 PM EDT (18:42 GMT) Lon: -78.761
Time Zone: US/Eastern Elev: 774 ft

Show me the last for .
Show Coded

Time T Td Feel RH Dir Speed Gust Alt SLP Vis Weather Sky Remarks
2018-09-19 14:27 84 63 86 48 330° 12 17 30.02 - 10 SCT047 SCT060 None
2018-09-19 14:07 84 64 86 51 360° 8 - 30.02 - 10 CLR None
2018-09-19 13:47 82 64 85 54 350° 6 - 30.03 - 10 SCT055 None
2018-09-19 13:27 82 64 85 54 330° 8 - 30.03 - 10 None
2018-09-19 13:07 82 64 85 54 320° 9 - 30.03 - 10 None
2018-09-19 10:50 70 70 - 100 - Calm - 30.04 - 10 SCT039 None
2018-09-19 10:47 70 70 - 100 - Calm - 30.04 - 10 SCT031 SCT039 None
2018-09-19 10:07 68 68 - 100 - Calm - 30.04 - 5 SCT001 None
2018-09-19 09:47 66 66 - 100 - Calm - 30.02 - 3 OVC001 None
2018-09-19 09:27 66 66 - 100 - Calm - 30.02 - 3 BKN001 BKN025 None
2018-09-19 09:07 64 64 - 100 - Calm - 30.03 - 1 OVC001 None
2018-09-19 08:47 64 64 - 100 - Calm - 30.03 - 0 OVC001 None
2018-09-19 08:27 64 64 - 100 - Calm - 30.03 - 0 OVC001 None
2018-09-19 08:07 64 64 - 100 - Calm - 30.02 - 0 OVC001 None
2018-09-19 07:47 64 64 - 100 - Calm - 30.02 - 0 OVC001 None
2018-09-19 07:27 64 64 - 100 - Calm - 30.01 - 0 OVC001 None
2018-09-19 07:07 64 64 - 100 - Calm - 29.99 - 0 OVC001 None
2018-09-19 06:47 64 64 - 100 - Calm - 29.99 - 0 OVC001 None
2018-09-19 06:27 64 64 - 100 - Calm - 29.99 - 0 OVC001 None
2018-09-19 06:07 64 64 - 100 - Calm - 29.99 - 0 OVC001 None
2018-09-19 05:47 64 64 - 100 - Calm - 29.99 - 0 OVC001 None
2018-09-19 05:27 64 64 - 100 - Calm - 29.97 - 0 OVC001 None
2018-09-19 05:07 64 64 - 100 - Calm - 29.97 - 0 OVC001 None
2018-09-19 04:47 64 64 - 100 - Calm - 29.97 - 0 OVC001 None
2018-09-19 04:27 64 64 - 100 - Calm - 29.97 - 0 OVC001 None
2018-09-19 04:07 64 64 - 100 - Calm - 29.97 - 0 OVC001 None
2018-09-19 03:47 64 64 - 100 - Calm - 29.96 - 0 OVC001 None
2018-09-19 03:27 64 64 - 100 - Calm - 29.96 - 0 OVC001 None
2018-09-19 03:07 64 64 - 100 - Calm - 29.96 - 0 OVC001 None
2018-09-19 02:47 64 64 - 100 - Calm - 29.96 - 0 OVC001 None
2018-09-19 02:27 64 64 - 100 - Calm - 29.96 - 0 OVC001 None
2018-09-19 02:07 64 64 - 100 - Calm - 29.96 - 0 BKN001 None
2018-09-19 01:47 64 64 - 100 - Calm - 29.96 - 0 VV002 None
2018-09-19 01:27 64 64 - 100 - Calm - 29.96 - 7 CLR None
2018-09-19 00:47 66 66 - 100 - Calm - 29.96 - 5 CLR None
2018-09-19 00:27 66 66 - 100 - Calm - 29.96 - 7 CLR None
2018-09-19 00:07 66 66 - 100 - Calm - 29.97 - 4 CLR None
2018-09-18 23:47 68 68 - 100 - Calm - 29.96 - 4 CLR None
2018-09-18 23:27 68 68 - 100 - Calm - 29.97 - 3 CLR None
2018-09-18 23:07 68 68 - 100 - Calm - 29.96 - 10 CLR None
2018-09-18 22:47 68 68 - 100 - Calm - 29.96 - 10 CLR None
2018-09-18 22:34 68 68 - 100 - Calm - 29.96 - 10 CLR None
2018-09-18 22:27 68 68 - 100 - Calm - 29.96 - 10 CLR None
2018-09-18 22:07 68 68 - 100 - Calm - 29.96 - 10 CLR None
2018-09-18 21:47 70 68 - 94 - Calm - 29.96 - 10 CLR None
2018-09-18 21:27 70 68 - 94 - Calm - 29.96 - 10 CLR None
2018-09-18 21:07 70 68 - 94 - Calm - 29.96 - 10 CLR None
2018-09-18 20:47 72 68 76 88 - Calm - 29.95 - 10 CLR None
2018-09-18 20:27 72 68 76 88 - Calm - 29.94 - 10 CLR None
2018-09-18 20:07 73 68 77 83 - Calm - 29.94 - 10 CLR None
2018-09-18 19:47 75 66 78 73 - Calm - 29.94 - 10 CLR None
2018-09-18 19:27 77 64 80 65 - Calm - 29.93 - 10 CLR None
2018-09-18 19:07 79 64 81 61 - Calm - 29.92 - 10 CLR None
2018-09-18 18:47 79 64 81 61 330° 3 - 29.92 - 10 CLR None
2018-09-18 18:27 81 63 82 54 350° 7 - 29.92 - 10 CLR None
2018-09-18 18:07 81 63 82 54 320° 8 - 29.92 - 10 CLR None
2018-09-18 17:47 81 63 82 54 330° 12 18 29.92 - 10 CLR None
2018-09-18 17:27 82 61 83 48 330° 15 21 29.91 - 10 CLR None
2018-09-18 17:07 82 61 83 48 340° 13 20 29.91 - 10 CLR None
2018-09-18 16:47 82 61 83 48 330° 13 23 29.90 - 10 CLR None
2018-09-18 16:07 82 63 84 51 340° 12 21 29.90 - 10 CLR None
2018-09-18 15:47 82 63 84 51 330° 12 21 29.90 - 10 SCT049 SCT060 None
2018-09-18 15:27 82 63 84 51 330° 14 17 29.89 - 10 SCT047 None
2018-09-18 15:07 81 64 83 57 330° 8 - 29.89 - 10 SCT045 SCT070 None
2018-09-18 14:47 82 64 85 54 360° 6 17 29.89 - 10 CLR None

Support USWX by starting your Amazon purchase here.